Hauptseite
METAR-TAF:

METAR-TAF

Flughäfen :

Flughafen Chōfu

Chofu, Japan

Breite: 35-40N, Länge: 139-32E, Höhe: 41 m

Beobachtung

Neuester Wetterbericht von vor 39 Minuten, um 08:00 UTC
Wind 5 kt aus Nord/Nordwest
Temperatur 19°C
Luftfeuchtigkeit 94%
Luftdruck 1005 hPa
Sichtweite: 5000 m
Leicht bewölkt in der Höhe von 300 ft
Durchbrochene Bewölkung in der Höhe von 500 ft
Durchbrochene Bewölkung in der Höhe von 2000 ft
Regenschauer, feuchter Dunst,

METAR: RJTF 180800Z 34005KT 5000 -SHRA BR FEW003 BKN005 BKN020 19/18 Q1005

Zeit: 17:39 (08:39 UTC)


TAF: fehlend

Wetterbeobachtungen und Prognosen von mehr als 4000 Flughäfen (METAR und TAF Bericht).

Die verfügbaren Stationen werden durch gelbe und rote Markierungen auf der Karte dargestellt.

Führen Sie die Maus auf sie, um den Namen der Station zu sehen.

Darauf klicken, um die Beobachtung von Wetterbeobachtungen und Prognosen zu sehen.

Um die Karte zu ändern : klicken Sie auf den grünen Tasten mit einem schwarzen Kreuz Zum Vergrößern, auf den grünen Button mit einem Gedankenstrich zu verkleinern, oder auf die grünen Pfeile für benachbarte Karten.


METAR-TAF: